This is the latest recevied weather packets stored in our database for station/object DL1AIE-13. If no packets are shown the sender has not sent any weather packets the latest 10 day(s).
| Time | Temp. | Humidity | Pressure | Rain* | Wind** | Luminosity | Snow |
|---|---|---|---|---|---|---|---|
| 1777768045 | 12.22° C | 76% | 1015.7 hPa | 0 mm | - | - | - |
| 1777767442 | 12.22° C | 80% | 1015.7 hPa | 0 mm | - | - | - |
| 1777766838 | 11.67° C | 79% | 1015.7 hPa | 0 mm | - | - | - |
| 1777766255 | 11.67° C | 78% | 1016 hPa | 0 mm | - | - | - |
| 1777765652 | 11.67° C | 80% | 1016.1 hPa | 0 mm | - | - | - |
| 1777765048 | 11.67° C | 81% | 1016 hPa | 0 mm | - | - | - |
| 1777764445 | 12.22° C | 77% | 1015.8 hPa | 0 mm | - | - | - |
| 1777763844 | 11.67° C | 79% | 1015.8 hPa | 0 mm | - | - | - |
| 1777763238 | 12.22° C | 77% | 1015.8 hPa | 0 mm | - | - | - |
| 1777762654 | 12.22° C | 77% | 1015.9 hPa | 0 mm | - | - | - |
| 1777762051 | 12.78° C | 76% | 1015.8 hPa | 0 mm | - | - | - |
| 1777761447 | 12.78° C | 73% | 1015.8 hPa | 0 mm | - | - | - |
| 1777760844 | 13.33° C | 72% | 1015.8 hPa | 0 mm | - | - | - |
| 1777760241 | 14.44° C | 66% | 1015.9 hPa | 0 mm | - | - | - |
| 1777759638 | 15° C | 63% | 1015.8 hPa | 0 mm | - | - | - |
| 1777759054 | 15.56° C | 63% | 1015.9 hPa | 0 mm | - | - | - |
| 1777758450 | 15.56° C | 61% | 1016 hPa | 0 mm | - | - | - |
| 1777757847 | 15.56° C | 60% | 1015.9 hPa | 0 mm | - | - | - |
| 1777757243 | 16.11° C | 60% | 1016.1 hPa | 0 mm | - | - | - |
| 1777756640 | 15.56° C | 64% | 1016.1 hPa | 0 mm | - | - | - |
| 1777756036 | 16.11° C | 60% | 1016.1 hPa | 0 mm | - | - | - |
| 1777755453 | 16.67° C | 58% | 1016.1 hPa | 0 mm | - | - | - |
| 1777754849 | 16.11° C | 62% | 1016.2 hPa | 0 mm | - | - | - |
| 1777754246 | 15° C | 70% | 1016.3 hPa | 0 mm | - | - | - |
| 1777753642 | 16.11° C | 66% | 1016.3 hPa | 0 mm | - | - | - |
* Rain latest hour (hover to see other rain measurements)
** Current wind speed in m/s (hover to see current wind gust speed)